Time;durP1;ratioP1;P1;durP2;ratioP2;P2;SDS_P1;SDS_P2;PMS_P1;PMS_P2;Temp;Humidity;BMP_temperature;BMP_pressure;BME280_temperature;BME280_humidity;BME280_pressure;Samples;Min_cycle;Max_cycle;Signal;HPM_P1;HPM_P2
2021/08/10 00:00:31;;;;;;;12.98;5.40;;;;;;;25.87;45.84;99926.84;5072454;28;20028;-71
2021/08/10 00:02:57;;;;;;;11.05;5.05;;;;;;;25.91;45.47;99922.53;5066276;28;20032;-72
2021/08/10 00:05:22;;;;;;;9.93;5.20;;;;;;;25.85;45.87;99926.28;5065788;28;20041;-72
2021/08/10 00:07:48;;;;;;;11.18;5.53;;;;;;;25.94;45.98;99925.53;5067069;28;20364;-71
2021/08/10 00:10:13;;;;;;;12.90;4.85;;;;;;;26.08;46.19;99936.81;5068948;28;20199;-72
2021/08/10 00:12:39;;;;;;;10.20;5.13;;;;;;;26.24;45.42;99937.75;5065226;28;20202;-71
2021/08/10 00:15:08;;;;;;;10.02;4.90;;;;;;;26.31;44.01;99941.88;5065403;28;20028;-71
2021/08/10 00:17:34;;;;;;;12.13;4.80;;;;;;;26.00;44.68;99934.53;5071937;28;20341;-71
2021/08/10 00:19:59;;;;;;;10.43;5.25;;;;;;;25.99;45.23;99935.63;5078945;28;20036;-71
2021/08/10 00:22:25;;;;;;;12.93;5.55;;;;;;;26.10;45.24;99940.09;5080669;28;20078;-72
2021/08/10 00:24:51;;;;;;;10.15;4.50;;;;;;;25.87;44.67;99938.50;5075332;28;20032;-71
2021/08/10 00:27:17;;;;;;;9.95;4.05;;;;;;;25.72;45.04;99931.03;5069489;28;20017;-71
2021/08/10 00:29:42;;;;;;;7.15;4.03;;;;;;;25.90;44.71;99931.75;5065383;28;20384;-71
2021/08/10 00:32:08;;;;;;;8.00;4.00;;;;;;;25.99;44.20;99935.63;5071878;28;20036;-71
2021/08/10 00:34:33;;;;;;;7.43;3.95;;;;;;;25.77;44.99;99938.41;5064580;28;20033;-71
2021/08/10 00:36:59;;;;;;;6.82;4.20;;;;;;;25.95;44.07;99932.59;5069879;28;20024;-71
2021/08/10 00:39:25;;;;;;;6.68;4.85;;;;;;;26.14;43.46;99938.50;5071898;28;20229;-71
2021/08/10 00:41:50;;;;;;;7.00;4.35;;;;;;;26.30;43.23;99928.56;5066301;28;20209;-71
2021/08/10 00:44:16;;;;;;;10.35;4.25;;;;;;;26.45;42.63;99936.84;5063902;28;20037;-71
2021/08/10 00:46:41;;;;;;;7.25;4.00;;;;;;;26.55;43.35;99939.63;5070567;28;20043;-71
2021/08/10 00:49:06;;;;;;;8.52;4.10;;;;;;;26.58;42.94;99911.13;5073256;28;20040;-72
2021/08/10 00:51:32;;;;;;;6.28;3.85;;;;;;;26.91;41.81;99929.78;5066843;28;20032;-72
2021/08/10 00:54:01;;;;;;;7.70;4.18;;;;;;;26.93;41.68;99924.06;5075733;28;20145;-72
2021/08/10 00:56:26;;;;;;;7.85;3.83;;;;;;;26.78;41.49;99907.69;5067133;28;20092;-72
2021/08/10 00:58:52;;;;;;;7.47;3.80;;;;;;;26.63;42.34;99922.03;5070324;28;20330;-72
2021/08/10 01:01:17;;;;;;;6.63;3.75;;;;;;;26.73;41.61;99922.06;5065793;28;20330;-71
2021/08/10 01:03:43;;;;;;;7.40;2.90;;;;;;;26.88;41.55;99924.88;5077142;28;20041;-71
2021/08/10 01:06:14;;;;;;;6.57;3.50;;;;;;;26.85;41.38;99911.00;5069362;28;20016;-71
2021/08/10 01:08:57;;;;;;;6.93;3.10;;;;;;;26.77;41.40;99917.75;5071153;28;20047;-71
2021/08/10 01:11:50;;;;;;;3.45;2.90;;;;;;;26.58;41.81;99916.56;5074366;28;20039;-71
2021/08/10 01:14:45;;;;;;;7.13;3.22;;;;;;;26.48;42.16;99916.50;5061728;28;20040;-71
2021/08/10 01:17:19;;;;;;;4.90;2.80;;;;;;;26.36;42.30;99914.81;5074493;28;20326;-72
2021/08/10 01:19:44;;;;;;;4.68;2.70;;;;;;;26.12;43.00;99918.13;5073958;28;20044;-71
2021/08/10 01:22:15;;;;;;;6.60;3.05;;;;;;;25.91;43.75;99920.63;5068536;28;20055;-71
2021/08/10 01:25:00;;;;;;;5.15;2.97;;;;;;;25.51;44.82;99914.81;5076962;28;20104;-73
2021/08/10 01:27:53;;;;;;;5.95;3.35;;;;;;;25.50;45.11;99908.56;5045070;28;20025;-73
2021/08/10 01:30:34;;;;;;;6.47;3.13;;;;;;;25.28;45.97;99910.50;5072936;28;20348;-73
2021/08/10 01:33:01;;;;;;;6.53;3.47;;;;;;;25.11;46.32;99911.41;5070285;28;20033;-73
2021/08/10 01:35:28;;;;;;;6.47;3.40;;;;;;;25.08;46.45;99906.47;5069384;28;20057;-73
2021/08/10 01:37:57;;;;;;;5.32;3.30;;;;;;;25.20;46.09;99919.06;5064294;28;20041;-73
2021/08/10 01:40:25;;;;;;;8.07;3.53;;;;;;;25.33;46.54;99921.41;5068930;28;20257;-73
2021/08/10 01:42:56;;;;;;;7.03;3.35;;;;;;;25.54;45.89;99908.88;5068986;28;20032;-71
2021/08/10 01:45:22;;;;;;;7.13;3.28;;;;;;;25.80;45.16;99908.06;5072764;28;20041;-73
2021/08/10 01:47:49;;;;;;;7.43;3.50;;;;;;;25.95;44.11;99905.47;5077808;28;20037;-74
2021/08/10 01:50:16;;;;;;;6.38;3.65;;;;;;;25.92;44.45;99897.84;5071507;28;20108;-74
2021/08/10 01:52:43;;;;;;;6.75;3.92;;;;;;;25.81;44.52;99869.00;5074034;28;20044;-71
2021/08/10 01:55:10;;;;;;;8.13;3.25;;;;;;;26.16;43.64;99894.81;5079489;28;20028;-71
2021/08/10 01:57:37;;;;;;;7.78;3.63;;;;;;;26.20;44.37;99898.63;5080160;28;20249;-71
2021/08/10 02:00:04;;;;;;;5.15;3.53;;;;;;;26.32;44.27;99894.69;5068935;28;20044;-71
2021/08/10 02:02:32;;;;;;;6.15;3.50;;;;;;;26.25;43.80;99890.53;5064113;28;20041;-73
2021/08/10 02:04:58;;;;;;;5.25;3.80;;;;;;;26.34;42.78;99894.41;5069202;28;20028;-73
2021/08/10 02:07:23;;;;;;;7.28;3.78;;;;;;;26.26;42.95;99889.44;5073689;28;20033;-73
2021/08/10 02:09:49;;;;;;;11.48;3.25;;;;;;;26.23;43.17;99889.97;5066415;28;20087;-73
2021/08/10 02:12:16;;;;;;;10.95;3.65;;;;;;;26.02;43.94;99899.88;5072298;28;20045;-73
2021/08/10 02:14:44;;;;;;;5.82;3.47;;;;;;;26.02;44.02;99905.28;5067077;28;20077;-73
2021/08/10 02:17:14;;;;;;;7.72;3.78;;;;;;;25.82;44.88;99899.66;5074903;28;20329;-73
2021/08/10 02:19:39;;;;;;;5.93;3.10;;;;;;;25.75;45.47;99897.16;5063199;28;20078;-73
2021/08/10 02:22:10;;;;;;;6.95;3.30;;;;;;;25.59;45.51;99898.88;5066733;28;20032;-73
2021/08/10 02:24:41;;;;;;;6.07;3.10;;;;;;;25.58;45.75;99905.38;5067639;28;20029;-73
2021/08/10 02:27:10;;;;;;;6.60;3.60;;;;;;;25.46;46.09;99904.72;5067384;28;20266;-73
2021/08/10 02:29:41;;;;;;;11.68;3.92;;;;;;;25.43;46.19;99906.06;5072267;28;20226;-73
2021/08/10 02:32:10;;;;;;;7.88;3.70;;;;;;;25.51;45.92;99907.50;5072682;28;20028;-73
2021/08/10 02:34:38;;;;;;;8.90;3.10;;;;;;;25.46;46.11;99913.69;5075511;28;20345;-74
2021/08/10 02:37:05;;;;;;;7.65;3.45;;;;;;;25.28;46.42;99927.56;5068240;28;20062;-74
2021/08/10 02:39:31;;;;;;;8.00;4.20;;;;;;;25.33;46.47;99930.34;5074335;28;20028;-74
2021/08/10 02:41:58;;;;;;;9.13;3.25;;;;;;;25.28;46.24;99922.16;5071219;28;20045;-74
2021/08/10 02:44:25;;;;;;;9.15;3.90;;;;;;;25.34;46.08;99912.19;5070699;28;20464;-73
2021/08/10 02:46:51;;;;;;;4.45;3.20;;;;;;;25.45;45.99;99920.19;5072359;28;20029;-73
2021/08/10 02:49:16;;;;;;;6.22;3.22;;;;;;;25.45;45.84;99922.88;5068582;28;20143;-73
2021/08/10 02:51:42;;;;;;;16.13;3.85;;;;;;;25.25;46.27;99913.72;5070935;28;20099;-73
2021/08/10 02:54:08;;;;;;;8.18;3.90;;;;;;;25.14;46.46;99900.06;5071033;28;20028;-73
2021/08/10 02:56:38;;;;;;;12.07;3.90;;;;;;;25.33;46.44;99919.50;5073822;28;20085;-73
2021/08/10 02:59:29;;;;;;;14.70;4.10;;;;;;;25.35;46.58;99909.22;5072687;28;20020;-73
2021/08/10 03:02:10;;;;;;;11.07;3.88;;;;;;;25.26;46.79;99916.16;5076418;28;20036;-73
2021/08/10 03:04:38;;;;;;;10.32;3.70;;;;;;;25.14;46.92;99913.59;5082260;28;20101;-71
2021/08/10 03:07:05;;;;;;;12.73;3.50;;;;;;;25.05;47.60;99920.53;5072291;28;20290;-71
2021/08/10 03:09:32;;;;;;;10.80;3.50;;;;;;;24.84;48.50;99930.22;5061666;28;20017;-71
2021/08/10 03:12:02;;;;;;;11.35;4.30;;;;;;;24.63;49.07;99922.09;5061221;28;20031;-71
2021/08/10 03:14:29;;;;;;;29.33;4.40;;;;;;;24.69;49.41;99924.63;5070488;28;20251;-71
2021/08/10 03:16:57;;;;;;;25.67;4.75;;;;;;;24.57;49.61;99934.72;5079808;28;20098;-71
2021/08/10 03:19:23;;;;;;;12.68;4.53;;;;;;;24.54;49.53;99940.66;5081874;28;20345;-71
2021/08/10 03:21:50;;;;;;;21.80;4.70;;;;;;;24.88;48.75;99938.69;5074210;28;20065;-73
2021/08/10 03:24:16;;;;;;;15.63;5.03;;;;;;;24.72;48.95;99942.25;5069042;28;20032;-73
2021/08/10 03:26:43;;;;;;;13.32;5.20;;;;;;;24.61;48.84;99944.00;5063564;28;20581;-73
2021/08/10 03:29:10;;;;;;;19.50;4.90;;;;;;;24.40;49.26;99952.88;5068795;28;20021;-72
2021/08/10 03:31:39;;;;;;;14.48;5.43;;;;;;;24.62;48.63;99948.34;5077271;28;20025;-73
2021/08/10 03:34:05;;;;;;;12.10;5.78;;;;;;;24.67;48.53;99951.13;5072138;28;20341;-71
2021/08/10 03:36:31;;;;;;;12.57;4.88;;;;;;;24.89;47.71;99953.84;5069012;28;20028;-71
2021/08/10 03:38:57;;;;;;;20.05;5.20;;;;;;;24.96;47.61;99956.38;5077523;28;20052;-71
2021/08/10 03:41:24;;;;;;;20.42;5.10;;;;;;;24.95;47.11;99957.44;5063311;28;20033;-73
2021/08/10 03:43:50;;;;;;;25.70;5.43;;;;;;;24.92;47.21;99942.53;5073927;28;20040;-73
2021/08/10 03:46:16;;;;;;;17.27;4.85;;;;;;;24.79;47.57;99954.53;5073498;28;20047;-73
2021/08/10 03:48:44;;;;;;;10.85;5.22;;;;;;;24.64;47.67;99965.16;5072698;28;20033;-73
2021/08/10 03:51:14;;;;;;;19.20;5.63;;;;;;;24.66;48.15;99970.31;5064983;28;20075;-73
2021/08/10 03:53:40;;;;;;;16.30;6.07;;;;;;;24.88;47.57;99970.34;5065557;28;20048;-73
2021/08/10 03:56:07;;;;;;;9.65;4.85;;;;;;;24.89;47.46;99964.69;5074870;28;20318;-73
2021/08/10 03:58:34;;;;;;;23.83;5.50;;;;;;;24.81;47.56;99960.53;5070631;28;20040;-73
2021/08/10 04:01:02;;;;;;;9.85;4.95;;;;;;;25.03;46.94;99954.38;5071033;28;20417;-73
2021/08/10 04:03:31;;;;;;;16.42;5.45;;;;;;;25.24;46.42;99953.53;5081042;28;20032;-73
2021/08/10 04:05:59;;;;;;;18.33;5.05;;;;;;;25.40;46.00;99968.91;5078472;28;20028;-73
2021/08/10 04:08:26;;;;;;;11.27;5.43;;;;;;;25.29;46.42;99966.34;5070626;28;20089;-73
2021/08/10 04:10:52;;;;;;;13.32;4.55;;;;;;;25.23;46.51;99970.06;5072745;28;20044;-73
2021/08/10 04:13:19;;;;;;;9.90;4.78;;;;;;;25.13;46.82;99968.03;5068997;28;20259;-73
2021/08/10 04:15:46;;;;;;;20.63;5.35;;;;;;;25.21;46.58;99970.31;5068121;28;20046;-71
2021/08/10 04:18:13;;;;;;;13.77;5.10;;;;;;;25.37;46.04;99979.44;5062987;28;20282;-73
2021/08/10 04:20:39;;;;;;;15.73;5.43;;;;;;;25.33;46.35;99967.47;5067428;28;20396;-71
2021/08/10 04:23:06;;;;;;;21.63;5.40;;;;;;;25.51;45.87;99977.16;5065194;28;20064;-73
2021/08/10 04:25:32;;;;;;;18.27;5.10;;;;;;;25.54;45.74;99973.94;5060944;28;20084;-73
2021/08/10 04:27:58;;;;;;;18.30;5.28;;;;;;;25.66;45.55;99977.34;5061508;28;20069;-73
2021/08/10 04:30:23;;;;;;;17.27;4.65;;;;;;;25.67;45.98;99965.44;5070397;28;20138;-73
2021/08/10 04:32:49;;;;;;;16.25;4.85;;;;;;;25.50;46.62;99972.81;5061248;28;20047;-73
2021/08/10 04:35:14;;;;;;;16.45;5.13;;;;;;;25.37;47.12;99972.13;5066530;28;20035;-73
2021/08/10 04:37:40;;;;;;;20.65;5.80;;;;;;;25.45;47.20;99973.56;5064519;28;20036;-73
2021/08/10 04:40:06;;;;;;;14.75;4.95;;;;;;;25.38;46.83;99979.19;5066174;28;20082;-73
2021/08/10 04:42:33;;;;;;;15.57;5.30;;;;;;;25.41;46.52;99980.56;5065050;28;20051;-73
2021/08/10 04:44:59;;;;;;;21.02;6.60;;;;;;;25.52;46.27;99984.22;5062072;28;20037;-73
2021/08/10 04:47:24;;;;;;;17.17;5.40;;;;;;;25.65;46.42;99991.97;5060456;28;20033;-73
2021/08/10 04:49:50;;;;;;;20.88;5.47;;;;;;;25.57;46.33;99987.00;5060704;28;20033;-71
2021/08/10 04:52:15;;;;;;;19.75;5.47;;;;;;;25.54;45.70;99991.03;5074202;28;20042;-73
2021/08/10 04:54:40;;;;;;;21.20;5.85;;;;;;;25.51;45.57;99986.13;5069298;28;20199;-71
2021/08/10 04:57:06;;;;;;;21.38;5.30;;;;;;;25.73;45.64;99983.41;5063395;28;20319;-73
2021/08/10 04:59:31;;;;;;;32.33;6.38;;;;;;;25.98;44.84;99994.50;5075417;28;20017;-73
2021/08/10 05:01:57;;;;;;;21.08;5.60;;;;;;;26.00;45.37;99992.34;5084493;28;20032;-71
2021/08/10 05:04:22;;;;;;;25.20;5.82;;;;;;;26.18;45.06;99980.31;5081427;28;20041;-73
2021/08/10 05:06:48;;;;;;;15.80;5.78;;;;;;;26.18;45.25;99985.75;5077795;28;20040;-71
2021/08/10 05:09:13;;;;;;;18.45;5.20;;;;;;;26.38;44.19;99987.84;5079243;28;20061;-71
2021/08/10 05:11:39;;;;;;;16.40;5.03;;;;;;;26.66;44.89;99987.50;5084388;28;20036;-71
2021/08/10 05:14:04;;;;;;;17.15;5.55;;;;;;;26.63;44.57;99993.44;5072322;28;20021;-73
2021/08/10 05:16:30;;;;;;;11.73;5.25;;;;;;;26.56;42.88;99995.56;5074444;28;20036;-71
2021/08/10 05:18:55;;;;;;;17.85;5.28;;;;;;;26.63;42.98;99998.88;5074759;28;20029;-72
2021/08/10 05:21:21;;;;;;;35.97;6.10;;;;;;;26.98;43.06;99989.34;5071643;28;20047;-72
2021/08/10 05:23:46;;;;;;;18.52;6.43;;;;;;;27.04;42.95;99997.25;5068092;28;20043;-71
2021/08/10 05:26:12;;;;;;;23.75;5.97;;;;;;;27.14;42.44;99993.81;5076336;28;20040;-71
2021/08/10 05:28:37;;;;;;;22.38;6.50;;;;;;;27.15;43.17;99998.16;5067218;28;20090;-71
2021/08/10 05:31:03;;;;;;;22.50;6.53;;;;;;;27.21;42.92;99983.50;5074580;28;20056;-71
2021/08/10 05:33:28;;;;;;;34.97;7.47;;;;;;;27.48;42.25;99990.66;5072906;28;20252;-71
2021/08/10 05:35:55;;;;;;;31.70;7.85;;;;;;;28.02;41.50;99993.81;5074099;28;20028;-71
2021/08/10 05:38:20;;;;;;;43.05;8.55;;;;;;;28.53;40.35;99991.94;5067903;28;20341;-71
2021/08/10 05:40:45;;;;;;;52.75;8.63;;;;;;;29.05;38.56;99982.59;5073793;28;20036;-71
2021/08/10 05:43:11;;;;;;;31.38;7.05;;;;;;;29.64;37.12;99981.00;5074157;28;20340;-72
2021/08/10 05:45:36;;;;;;;23.25;6.72;;;;;;;30.22;36.10;99990.22;5074918;28;20071;-72
2021/08/10 05:48:02;;;;;;;28.55;7.15;;;;;;;30.65;34.76;99987.66;5064671;28;20033;-72
2021/08/10 05:50:28;;;;;;;18.05;6.50;;;;;;;31.01;34.31;99988.09;5068183;28;20041;-72
2021/08/10 05:52:53;;;;;;;29.00;6.18;;;;;;;31.30;33.55;99997.09;5083188;28;20085;-72
2021/08/10 05:55:19;;;;;;;14.85;4.18;;;;;;;31.38;32.25;99993.72;5070539;28;20314;-72
2021/08/10 05:57:44;;;;;;;10.13;3.80;;;;;;;31.47;31.90;99999.34;5084840;28;20032;-72
2021/08/10 06:00:10;;;;;;;9.18;3.85;;;;;;;31.70;31.38;99995.75;5084558;28;20028;-72
2021/08/10 06:02:37;;;;;;;7.10;3.50;;;;;;;31.87;30.18;99999.91;5076749;28;20037;-72
2021/08/10 06:05:04;;;;;;;6.90;3.55;;;;;;;31.90;30.67;99991.91;5078109;28;20036;-72
2021/08/10 06:07:29;;;;;;;11.50;3.88;;;;;;;32.07;31.25;99997.66;5084133;28;20346;-72
2021/08/10 06:09:54;;;;;;;8.48;3.65;;;;;;;32.38;30.96;99995.28;5084486;28;20039;-72
2021/08/10 06:12:20;;;;;;;6.97;3.63;;;;;;;32.44;30.37;100003.44;5082957;28;20043;-72
2021/08/10 06:14:45;;;;;;;9.60;3.70;;;;;;;32.56;30.05;99999.09;5084340;28;20065;-72
2021/08/10 06:17:11;;;;;;;9.20;4.20;;;;;;;32.57;29.94;99997.97;5084156;28;20039;-72
2021/08/10 06:19:36;;;;;;;10.55;3.92;;;;;;;32.86;29.10;99996.94;5077199;28;20032;-72
2021/08/10 06:22:02;;;;;;;18.73;4.75;;;;;;;33.35;29.29;99988.03;5076762;28;20031;-72
2021/08/10 06:24:27;;;;;;;11.00;3.72;;;;;;;33.44;28.84;99990.88;5083856;28;20032;-72
2021/08/10 06:26:54;;;;;;;11.13;4.10;;;;;;;33.87;28.13;99988.53;5084119;28;20290;-72
2021/08/10 06:29:19;;;;;;;8.73;4.13;;;;;;;34.15;28.24;99984.56;5083917;28;20044;-72
2021/08/10 06:31:45;;;;;;;14.43;3.70;;;;;;;34.02;28.26;99974.44;5084143;28;20322;-72
2021/08/10 06:34:10;;;;;;;6.47;4.05;;;;;;;33.76;28.86;99981.63;5073616;28;20055;-72
2021/08/10 06:36:36;;;;;;;11.23;4.03;;;;;;;33.73;28.92;99985.81;5072527;28;20031;-72
2021/08/10 06:39:01;;;;;;;11.07;4.38;;;;;;;34.13;27.75;99994.22;5069691;28;20032;-72
2021/08/10 06:41:27;;;;;;;10.77;4.78;;;;;;;34.39;27.52;99987.03;5073293;28;20036;-72
2021/08/10 06:43:52;;;;;;;13.85;4.85;;;;;;;34.74;26.81;99976.22;5067517;28;20037;-72
2021/08/10 06:46:18;;;;;;;13.18;4.70;;;;;;;34.83;26.30;99975.16;5072372;28;20019;-72
2021/08/10 06:48:43;;;;;;;22.63;4.72;;;;;;;34.89;27.32;99967.56;5071352;28;20029;-72
2021/08/10 06:51:09;;;;;;;17.25;4.97;;;;;;;35.15;27.02;99965.69;5075822;28;20091;-72
2021/08/10 06:53:34;;;;;;;11.55;5.38;;;;;;;35.41;26.26;99970.50;5066277;28;20033;-71
2021/08/10 06:55:59;;;;;;;15.45;5.72;;;;;;;35.37;26.30;99963.97;5072043;28;20215;-72
2021/08/10 06:58:25;;;;;;;10.48;4.82;;;;;;;35.30;26.04;99960.88;5064536;28;20306;-72
2021/08/10 07:00:50;;;;;;;15.90;4.93;;;;;;;35.49;25.31;99959.50;5071669;28;20031;-72
2021/08/10 07:03:16;;;;;;;17.13;4.95;;;;;;;35.69;25.09;99958.03;5071147;28;20032;-72
2021/08/10 07:05:41;;;;;;;14.38;5.63;;;;;;;35.68;25.21;99958.38;5066919;28;20036;-72
2021/08/10 07:08:07;;;;;;;8.85;5.43;;;;;;;35.81;25.49;99957.44;5066597;28;20311;-72
2021/08/10 07:10:32;;;;;;;11.52;5.70;;;;;;;35.93;25.68;99951.25;5076355;28;20044;-72
2021/08/10 07:12:58;;;;;;;16.73;5.03;;;;;;;36.20;25.07;99948.13;5075806;28;20332;-72
2021/08/10 07:15:23;;;;;;;17.40;5.55;;;;;;;36.45;24.46;99944.56;5075582;28;20582;-72
2021/08/10 07:17:48;;;;;;;20.17;6.25;;;;;;;36.44;24.57;99942.13;5073660;28;20051;-72
2021/08/10 07:20:14;;;;;;;17.10;5.20;;;;;;;36.42;25.60;99936.13;5073711;28;20043;-72
2021/08/10 07:22:39;;;;;;;14.43;6.45;;;;;;;36.23;25.89;99936.44;5075405;28;20250;-72
2021/08/10 07:25:05;;;;;;;17.98;6.57;;;;;;;36.39;25.23;99936.75;5073481;28;20322;-72
2021/08/10 07:27:31;;;;;;;19.25;6.85;;;;;;;36.53;24.94;99936.56;5072802;28;20052;-72
2021/08/10 07:29:56;;;;;;;18.20;6.03;;;;;;;36.94;24.83;99922.94;5076240;28;20081;-72
2021/08/10 07:32:22;;;;;;;16.58;6.25;;;;;;;36.70;24.89;99929.03;5073452;28;20336;-72
2021/08/10 07:34:48;;;;;;;20.17;6.00;;;;;;;36.82;24.55;99922.84;5075620;28;20067;-72
2021/08/10 07:37:13;;;;;;;17.23;6.32;;;;;;;36.93;25.22;99917.75;5076216;28;20756;-72
2021/08/10 07:39:39;;;;;;;15.65;6.57;;;;;;;37.20;24.12;99908.16;5075511;28;20035;-72
2021/08/10 07:42:04;;;;;;;15.82;5.90;;;;;;;36.96;23.12;99890.28;5073328;28;20035;-72
2021/08/10 07:44:30;;;;;;;12.43;5.40;;;;;;;37.05;23.04;99906.81;5072885;28;20036;-72
2021/08/10 07:46:55;;;;;;;12.50;5.88;;;;;;;37.02;23.49;99905.53;5071371;28;20032;-72
2021/08/10 07:49:20;;;;;;;14.93;5.43;;;;;;;36.81;24.09;99899.16;5075512;28;20334;-72
2021/08/10 07:51:46;;;;;;;11.93;5.93;;;;;;;36.90;24.26;99891.63;5071420;28;20237;-72
2021/08/10 07:54:11;;;;;;;11.65;5.50;;;;;;;36.83;23.86;99896.88;5074756;28;20336;-72
2021/08/10 07:56:37;;;;;;;12.75;5.20;;;;;;;36.93;23.95;99890.97;5076113;28;20055;-72
2021/08/10 07:59:02;;;;;;;12.13;5.85;;;;;;;36.78;23.55;99893.50;5070252;28;20029;-72
2021/08/10 08:01:28;;;;;;;15.63;5.43;;;;;;;37.15;24.05;99892.59;5069282;28;20033;-72
2021/08/10 08:03:53;;;;;;;10.68;5.53;;;;;;;37.31;22.98;99899.19;5076358;28;20040;-72
2021/08/10 08:06:19;;;;;;;9.52;5.72;;;;;;;37.60;23.14;99894.75;5071562;28;20034;-72
2021/08/10 08:08:44;;;;;;;10.68;5.57;;;;;;;37.40;23.12;99888.06;5074349;28;20021;-72
2021/08/10 08:11:10;;;;;;;8.32;5.60;;;;;;;37.17;23.25;99889.50;5075604;28;20039;-72
2021/08/10 08:13:35;;;;;;;10.85;5.20;;;;;;;37.70;22.44;99889.63;5076499;28;20043;-72
2021/08/10 08:16:01;;;;;;;10.18;5.18;;;;;;;37.86;22.03;99892.56;5075191;28;20036;-72
2021/08/10 08:18:27;;;;;;;9.23;4.65;;;;;;;37.74;22.40;99889.75;5073422;28;20060;-72
2021/08/10 08:20:53;;;;;;;8.50;4.70;;;;;;;37.76;21.68;99890.22;5076403;28;20024;-72
2021/08/10 08:23:19;;;;;;;13.32;5.03;;;;;;;37.65;21.81;99887.06;5070672;28;20035;-72
2021/08/10 08:25:45;;;;;;;12.57;5.13;;;;;;;38.00;21.38;99881.22;5075914;28;20260;-72
2021/08/10 08:28:13;;;;;;;10.20;5.40;;;;;;;37.69;21.47;99881.69;5074084;28;20223;-72
2021/08/10 08:30:39;;;;;;;13.32;5.90;;;;;;;38.06;21.57;99877.06;5073542;28;20047;-72
2021/08/10 08:33:10;;;;;;;11.68;5.47;;;;;;;38.27;21.79;99875.06;5072207;28;20035;-72
2021/08/10 08:35:38;;;;;;;10.65;5.20;;;;;;;38.33;21.50;99878.41;5072136;28;20421;-72
2021/08/10 08:38:04;;;;;;;10.18;5.30;;;;;;;38.45;21.42;99870.13;5073261;28;20099;-72
2021/08/10 08:40:29;;;;;;;11.60;5.13;;;;;;;38.43;21.45;99866.91;5073334;28;20052;-72
2021/08/10 08:42:55;;;;;;;11.40;5.15;;;;;;;38.21;21.28;99875.63;5071714;28;20226;-72
2021/08/10 08:45:20;;;;;;;13.55;5.63;;;;;;;38.45;20.95;99872.88;5074026;28;20043;-72
2021/08/10 08:47:50;;;;;;;11.57;5.03;;;;;;;38.54;20.42;99868.06;5074408;28;20029;-72
2021/08/10 08:50:20;;;;;;;10.55;4.95;;;;;;;38.39;20.64;99865.97;5076324;28;20047;-72
2021/08/10 08:52:51;;;;;;;10.50;5.00;;;;;;;38.59;21.21;99858.75;5071671;28;20100;-72
2021/08/10 08:55:18;;;;;;;11.00;5.22;;;;;;;39.02;20.28;99862.88;5073073;28;20032;-72
2021/08/10 08:57:43;;;;;;;12.82;5.10;;;;;;;38.85;20.23;99858.41;5074237;28;20048;-72
2021/08/10 09:00:14;;;;;;;7.10;4.55;;;;;;;39.03;20.16;99856.19;5075171;28;20036;-72
2021/08/10 09:02:40;;;;;;;9.57;4.60;;;;;;;39.02;18.91;99860.91;5073937;28;20028;-72
2021/08/10 09:05:07;;;;;;;15.65;4.78;;;;;;;38.40;19.84;99859.28;5073723;28;20040;-72
2021/08/10 09:07:32;;;;;;;9.48;4.47;;;;;;;38.47;20.11;99851.22;5075051;28;20032;-72
2021/08/10 09:10:15;;;;;;;6.55;4.07;;;;;;;38.40;19.58;99852.94;5071333;28;20319;-72
2021/08/10 09:12:50;;;;;;;6.68;4.32;;;;;;;38.16;20.06;99851.78;5072756;28;20474;-72
2021/08/10 09:15:36;;;;;;;7.40;4.35;;;;;;;38.34;19.13;99842.13;5075651;28;20242;-72
2021/08/10 09:18:13;;;;;;;6.40;4.07;;;;;;;38.52;20.06;99841.91;5080101;28;20037;-72
2021/08/10 09:20:40;;;;;;;7.15;3.78;;;;;;;38.94;18.37;99832.19;5080495;28;20036;-72
2021/08/10 09:23:06;;;;;;;5.97;3.58;;;;;;;39.04;18.76;99835.63;5080427;28;20036;-72
2021/08/10 09:25:33;;;;;;;6.32;3.90;;;;;;;39.06;18.26;99828.63;5080093;28;20195;-72
2021/08/10 09:28:09;;;;;;;26.02;5.15;;;;;;;38.65;18.06;99829.72;5080295;28;20396;-72
2021/08/10 09:30:35;;;;;;;6.72;4.32;;;;;;;38.47;18.96;99828.28;5079946;28;20036;-72
2021/08/10 09:33:03;;;;;;;13.10;5.15;;;;;;;38.47;19.89;99826.31;5080232;28;20040;-72
2021/08/10 09:35:34;;;;;;;14.65;5.13;;;;;;;38.35;19.86;99818.03;5080412;28;20020;-72
2021/08/10 09:38:12;;;;;;;7.43;4.90;;;;;;;38.21;20.58;99814.78;5081055;28;20329;-72
2021/08/10 09:40:50;;;;;;;33.42;5.47;;;;;;;37.99;20.19;99816.00;5082776;28;20131;-72
2021/08/10 09:43:19;;;;;;;12.88;5.47;;;;;;;37.93;21.70;99820.94;5083423;28;20089;-72
2021/08/10 09:45:44;;;;;;;12.30;5.38;;;;;;;37.80;21.31;99810.22;5083895;28;20028;-72
2021/08/10 09:48:17;;;;;;;10.18;4.88;;;;;;;37.75;21.46;99807.66;5084133;28;20253;-71
2021/08/10 09:50:44;;;;;;;12.10;5.35;;;;;;;37.57;21.32;99802.31;5083226;28;20024;-71
2021/08/10 09:53:16;;;;;;;11.70;5.45;;;;;;;37.63;21.50;99797.38;5083948;28;20024;-71
2021/08/10 09:55:55;;;;;;;21.67;6.13;;;;;;;37.76;21.74;99801.00;5083801;28;20043;-72
2021/08/10 09:58:20;;;;;;;12.60;5.43;;;;;;;37.64;21.49;99801.75;5083516;28;20065;-72
2021/08/10 10:00:46;;;;;;;15.63;5.63;;;;;;;37.55;21.96;99803.78;5083684;28;20095;-72
2021/08/10 10:03:20;;;;;;;10.45;4.97;;;;;;;37.61;20.06;99800.47;5083486;28;20037;-72
2021/08/10 10:05:46;;;;;;;8.30;4.80;;;;;;;37.50;21.39;99798.47;5083212;28;20314;-72
2021/08/10 10:08:14;;;;;;;8.95;5.07;;;;;;;37.51;21.88;99800.09;5083349;28;20305;-72
2021/08/10 10:10:42;;;;;;;8.93;5.22;;;;;;;37.48;20.57;99800.78;5083497;28;20028;-72
2021/08/10 10:13:13;;;;;;;9.40;4.88;;;;;;;37.12;20.90;99798.59;5083464;28;20063;-72
2021/08/10 10:15:39;;;;;;;9.82;4.68;;;;;;;36.92;20.27;99791.94;5083433;28;20043;-72
2021/08/10 10:18:06;;;;;;;9.98;5.10;;;;;;;36.91;21.45;99790.34;5083011;28;20068;-72
2021/08/10 10:20:34;;;;;;;11.50;5.00;;;;;;;36.98;20.32;99787.84;5083255;28;20036;-72
2021/08/10 10:23:03;;;;;;;9.18;5.07;;;;;;;37.00;19.75;99786.34;5083192;28;20203;-72
2021/08/10 10:25:30;;;;;;;6.97;4.65;;;;;;;36.74;20.48;99789.28;5082274;28;20256;-72
2021/08/10 10:27:57;;;;;;;8.82;4.78;;;;;;;36.57;22.84;99781.13;5082976;28;20076;-71
2021/08/10 10:30:23;;;;;;;7.55;5.15;;;;;;;36.51;21.27;99774.19;5079543;28;20024;-71
2021/08/10 10:32:49;;;;;;;7.57;4.97;;;;;;;36.26;21.91;99766.81;5083303;28;20033;-72
2021/08/10 10:35:17;;;;;;;10.60;5.00;;;;;;;36.51;20.85;99767.88;5080474;28;20203;-72
2021/08/10 10:37:45;;;;;;;8.15;4.82;;;;;;;36.44;21.13;99763.69;5083060;28;20099;-71
2021/08/10 10:40:12;;;;;;;6.35;4.40;;;;;;;36.46;20.76;99763.34;5083215;28;20107;-71
2021/08/10 10:42:39;;;;;;;11.05;4.72;;;;;;;36.48;20.74;99758.31;5082727;28;20046;-72
2021/08/10 10:45:05;;;;;;;7.93;4.82;;;;;;;36.60;21.16;99755.63;5082687;28;20032;-72
2021/08/10 10:47:37;;;;;;;7.47;5.40;;;;;;;36.35;23.10;99746.34;5082609;28;20205;-72
2021/08/10 10:50:04;;;;;;;12.50;4.80;;;;;;;36.47;22.73;99747.59;5081479;28;20028;-72
2021/08/10 10:52:33;;;;;;;7.65;4.20;;;;;;;36.66;21.31;99736.94;5082266;28;20036;-72
2021/08/10 10:54:59;;;;;;;9.02;4.75;;;;;;;36.77;22.48;99732.66;5082523;28;20025;-72
2021/08/10 10:57:31;;;;;;;11.57;4.78;;;;;;;37.05;21.07;99727.38;5082418;28;20036;-72
2021/08/10 10:59:58;;;;;;;8.00;4.25;;;;;;;37.23;20.92;99731.63;5082435;28;20033;-72
2021/08/10 11:02:25;;;;;;;9.70;4.70;;;;;;;37.21;20.33;99724.78;5082418;28;20040;-72
2021/08/10 11:05:06;;;;;;;22.55;6.80;;;;;;;37.15;20.63;99723.38;5077699;28;20036;-72
2021/08/10 11:07:55;;;;;;;10.98;4.68;;;;;;;37.22;20.06;99721.69;5074234;28;20049;-72
2021/08/10 11:10:47;;;;;;;8.85;4.65;;;;;;;37.00;20.77;99720.13;5076337;28;20054;-71
2021/08/10 11:13:18;;;;;;;5.97;4.65;;;;;;;36.95;20.08;99709.28;5074299;28;20040;-72
2021/08/10 11:15:44;;;;;;;7.75;4.65;;;;;;;36.95;21.03;99705.72;5070084;28;20035;-72
2021/08/10 11:18:09;;;;;;;11.57;4.90;;;;;;;36.73;21.60;99710.41;5073310;28;20233;-71
2021/08/10 11:20:49;;;;;;;13.57;5.40;;;;;;;36.65;22.08;99707.72;5073623;28;20042;-72
2021/08/10 11:23:21;;;;;;;9.05;5.28;;;;;;;36.55;21.54;99708.13;5073235;28;20040;-72
2021/08/10 11:25:53;;;;;;;9.77;5.03;;;;;;;36.65;21.97;99699.44;5073743;28;20032;-72
2021/08/10 11:28:31;;;;;;;15.10;5.18;;;;;;;36.70;20.33;99689.03;5073665;28;20051;-72
2021/08/10 11:31:06;;;;;;;11.88;5.03;;;;;;;36.82;20.01;99693.00;5074822;28;20103;-72